Aviation Digital Data Service (ADDS)

Output produced by METARs form (0421 UTC 19 January 2017)
found at http://aviationweather.gov/adds/metars/
 
KFAY 182324Z 1900/1924 01006KT P6SM SKC 
     FM191500 07004KT P6SM SCT200